Nearby METAR Reports

 

KCFV - Coffeyville, Kansas, USA
Distance from station: ENE 93mi, 150km
Updated: Wed, 01-23-2019 5:52pm CST
Clear
Clear
 Wind from SSW
Wind: SSW 3 mph , 6 km/h
Temperature: 34°F , 1°C
Dew Point: 23°F , -5°C
Humidity: 65%
Barometer: 1015.9 hPa
Clouds: Clear
Visibility: 10 miles , 16 km
2019/01/23 23:52 KCFV 232352Z AUTO 20003KT 10SM CLR 01/M05 A3000 RMK AO2 SLP169 T00061050 10017 21028 56010
KIDP - Independence, Kansas, USA
Distance from station: NE 86mi, 138km
Updated: Wed, 01-23-2019 5:55pm CST
Clear
Clear
 Wind from SSW
Wind: SSW 5 mph , 7 km/h
Temperature: 32°F , 0°C
Wind Chill: 27°F , -3°C
Dew Point: 23°F , -5°C
Humidity: 69%
Barometer: 1016.3 hPa
Clouds: Clear
Visibility: 10 miles , 16 km
2019/01/23 23:55 KIDP 232355Z AUTO 21004KT 10SM CLR 00/M05 A3001 RMK AO2 T10031050 10019 21033 400191069
KIAB - Mcconnell Afb, Kansas, USA
Distance from station: N 84mi, 135km
Updated: Wed, 01-23-2019 5:56pm CST
Clear
Clear
 Wind from SSW
Wind: SSW 8 mph , 13 km/h
Temperature: 30°F , -1°C
Wind Chill: 22°F , -6°C
Dew Point: 23°F , -5°C
Humidity: 75%
Barometer: 1014.2 hPa
Clouds: Clear
Visibility: 10 miles , 16 km
2019/01/23 23:56 KIAB 232356Z AUTO 21007KT 10SM CLR M01/M05 A2995 RMK AO2 SLP161 T10071048 10029 21020 $
 
KICT - Wichita, Kansas, USA
Distance from station: NNW 88mi, 142km
Updated: Wed, 01-23-2019 5:53pm CST
Few Clouds
Few Clouds
 Wind from S
Wind: S 6 mph , 9 km/h
Temperature: 32°F , 0°C
Wind Chill: 26°F , -3°C
Dew Point: 27°F , -3°C
Humidity: 80%
Barometer: 1014.2 hPa
Clouds: Few Clouds
Visibility: 10 miles , 16 km
Cloud details: Few Clouds 22000 ft
2019/01/23 23:53 KICT 232353Z 18005KT 10SM FEW220 00/M03 A2995 RMK AO2 SLP155 T00001033 10044 21011 56013 $
KAAO - Wichita/Jabara, Kansas, USA
Distance from station: N 93mi, 149km
Updated: Wed, 01-23-2019 5:54pm CST
Clear
Clear
 Wind from S
Wind: S 8 mph , 13 km/h
Temperature: 32°F , 0°C
Wind Chill: 25°F , -4°C
Dew Point: 25°F , -4°C
Humidity: 75%
Barometer: 1014.2 hPa
Clouds: Clear
Visibility: 10 miles , 16 km
2019/01/23 23:54 KAAO 232354Z AUTO 19007KT 10SM CLR 00/M04 A2995 RMK AO2 SLP159 T00001039 10028 21028 56010
KWLD - Winfield/Arkansa, Kansas, USA
Distance from station: N 52mi, 84km
Updated: Wed, 01-23-2019 5:54pm CST
Clear
Clear
 Wind from S
Wind: S 5 mph , 7 km/h
Temperature: 30°F , -1°C
Wind Chill: 25°F , -4°C
Dew Point: 25°F , -4°C
Humidity: 80%
Barometer: 1015.6 hPa
Clouds: Clear
Visibility: 10 miles , 16 km
2019/01/23 23:54 KWLD 232354Z AUTO 19004KT 10SM CLR M01/M04 A2999 RMK AO2 SLP168 T10061039 10028 21017 56016
 
KAVK - Alva, Oklahoma, USA
Distance from station: WNW 94mi, 152km
Updated: Wed, 01-23-2019 5:55pm CST
Clear
Clear
 Wind from WSW
Wind: WSW 6 mph , 9 km/h
Temperature: 41°F , 5°C
Wind Chill: 37°F , 3°C
Dew Point: 23°F , -5°C
Humidity: 49%
Barometer: 1014.6 hPa
Clouds: Clear
Visibility: 10 miles , 16 km
2019/01/23 23:55 KAVK 232355Z AUTO 25005KT 10SM CLR 05/M05 A2996 RMK AO2
KBVO - Bartlesville, Oklahoma, USA
Distance from station: ENE 61mi, 98km
Updated: Wed, 01-23-2019 5:53pm CST
Clear
Clear
 Wind from calm
Wind: Calm
Temperature: 30°F , -1°C
Dew Point: 23°F , -5°C
Humidity: 75%
Barometer: 1016.9 hPa
Clouds: Clear
Visibility: 10 miles , 16 km
2019/01/23 23:53 KBVO 232353Z AUTO 00000KT 10SM CLR M01/M05 A3003 RMK AO2 SLP173 T10111050 10033 21022 56009
KBKN - Blackwell, Oklahoma, USA
Distance from station: NW 29mi, 47km
Updated: Wed, 01-23-2019 5:55pm CST
Clear
Clear
 Wind from S
Wind: S 6 mph , 9 km/h
Temperature: 34°F , 1°C
Wind Chill: 29°F , -2°C
Dew Point: 27°F , -3°C
Humidity: 75%
Barometer: 1016.6 hPa
Clouds: Clear
Visibility: 10 miles , 16 km
2019/01/23 23:55 KBKN 232355Z AUTO 17005KT 10SM CLR 01/M03 A3002 RMK AO2
 
KGCM - Claremore, Oklahoma, USA
Distance from station: E 86mi, 138km
Updated: Wed, 01-23-2019 5:55pm CST
Clear
Clear
 Wind from calm
Wind: Calm
Temperature: 32°F , 0°C
Dew Point: 23°F , -5°C
Humidity: 69%
Barometer: 1017.6 hPa
Clouds: Clear
Visibility: 10 miles , 16 km
2019/01/23 23:55 KGCM 232355Z AUTO 00000KT 10SM CLR 00/M05 A3005 RMK AO2 TSNO
KCQB - Chandler, Oklahoma, USA
Distance from station: SSE 50mi, 80km
Updated: Wed, 01-23-2019 5:55pm CST
Clear
Clear
 Wind from W
Wind: W 5 mph , 7 km/h
Temperature: 36°F , 2°C
Wind Chill: 32°F , 0°C
Dew Point: 19°F , -7°C
Humidity: 52%
Barometer: 1016.9 hPa
Clouds: Clear
Visibility: 10 miles , 16 km
2019/01/23 23:55 KCQB 232355Z AUTO 27004KT 10SM CLR 02/M07 A3003 RMK AO2 T00181070 10050 21004 400501053
KCUH - Cushing, Oklahoma, USA
Distance from station: SSE 35mi, 57km
Updated: Wed, 01-23-2019 5:55pm CST
Clear
Clear
 Wind from calm
Wind: Calm
Temperature: 36°F , 2°C
Dew Point: 21°F , -6°C
Humidity: 56%
Barometer: 1016.6 hPa
Clouds: Clear
Visibility: 10 miles , 16 km
2019/01/23 23:55 KCUH 232355Z AUTO 00000KT 10SM CLR 02/M06 A3002 RMK AO2 T00171062 10042 21008
 
KRQO - El Reno Muni, Oklahoma, USA
Distance from station: SW 85mi, 137km
Updated: Wed, 01-23-2019 5:55pm CST
Clear
Clear
 Wind from SW
Wind: SW 6 mph , 9 km/h
Temperature: 41°F , 5°C
Wind Chill: 37°F , 3°C
Dew Point: 23°F , -5°C
Humidity: 49%
Barometer: 1016.3 hPa
Clouds: Clear
Visibility: 7 miles , 11 km
2019/01/23 23:55 KRQO 232355Z AUTO 22005KT 7SM CLR 05/M05 A3001 RMK AO2 T00451052 10074 20003 400741060
KEND - Enid/Vance Afb, Oklahoma, USA
Distance from station: W 50mi, 81km
Updated: Wed, 01-23-2019 5:56pm CST
Few Clouds
Few Clouds
 Wind from S
Wind: S 8 mph , 13 km/h
Temperature: 34°F , 1°C
Wind Chill: 27°F , -3°C
Dew Point: 21°F , -6°C
Humidity: 60%
Barometer: 1014.9 hPa
Clouds: Few Clouds
Visibility: 10 miles , 16 km
Cloud details: Few Clouds 25000 ft
2019/01/23 23:56 KEND 232356Z 17007KT 10SM FEW250 01/M06 A2997 RMK AO2A SLP164 T00081059 10068 20004 57015 $
KWDG - Enid/Woodring, Oklahoma, USA
Distance from station: W 42mi, 67km
Updated: Wed, 01-23-2019 5:50pm CST
Partly cloudy
Partly cloudy
 Wind from SSE
Wind: SSE 6 mph , 9 km/h
Temperature: 37°F , 3°C
Wind Chill: 32°F , 0°C
Dew Point: 25°F , -4°C
Humidity: 60%
Barometer: 1015.2 hPa
Clouds: Partly cloudy
Visibility: 10 miles , 16 km
Cloud details: Partly cloudy 20000 ft
2019/01/23 23:50 KWDG 232350Z 15005KT 10SM SCT200 03/M04 A2998
 
KGOK - Guthrie, Oklahoma, USA
Distance from station: SSW 44mi, 71km
Updated: Wed, 01-23-2019 5:53pm CST
Clear
Clear
 Wind from SSW
Wind: SSW 3 mph , 6 km/h
Temperature: 37°F , 3°C
Dew Point: 21°F , -6°C
Humidity: 52%
Barometer: 1016.3 hPa
Clouds: Clear
Visibility: 10 miles , 16 km
2019/01/23 23:53 KGOK 232353Z AUTO 20003KT 10SM CLR 03/M06 A3001 RMK AO2 SLP174 T00281061 10050 21006 58014 $
KOUN - Norman/Westheime, Oklahoma, USA
Distance from station: SSW 84mi, 136km
Updated: Wed, 01-23-2019 5:45pm CST
Clear
Clear
 Wind from W
Wind: W 3 mph , 6 km/h
Temperature: 41°F , 5°C
Dew Point: 19°F , -7°C
Humidity: 42%
Barometer: 1016.3 hPa
Clouds: Clear
Visibility: 10 miles , 16 km
2019/01/23 23:45 KOUN 232345Z 26003KT 10SM CLR 05/M07 A3001
KOKC - Oklahoma City, Oklahoma, USA
Distance from station: SSW 78mi, 126km
Updated: Wed, 01-23-2019 5:52pm CST
Few Clouds
Few Clouds
 Wind from S
Wind: S 3 mph , 6 km/h
Temperature: 37°F , 3°C
Dew Point: 19°F , -7°C
Humidity: 48%
Barometer: 1016.3 hPa
Clouds: Few Clouds
Visibility: 10 miles , 16 km
Cloud details: Few Clouds 25000 ft
2019/01/23 23:52 KOKC 232352Z 19003KT 10SM FEW250 03/M07 A3001 RMK AO2 SLP173 T00281067 10061 21006 58013 $
 
KPWA - Okla City/Wiley, Oklahoma, USA
Distance from station: SSW 70mi, 113km
Updated: Wed, 01-23-2019 5:53pm CST
Clear
Clear
 Wind from SSW
Wind: SSW 5 mph , 7 km/h
Temperature: 39°F , 4°C
Wind Chill: 35°F , 2°C
Dew Point: 19°F , -7°C
Humidity: 45%
Barometer: 1016.3 hPa
Clouds: Clear
Visibility: 10 miles , 16 km
2019/01/23 23:53 KPWA 232353Z 20004KT 10SM CLR 04/M07 A3001 RMK AO2 SLP172 T00391067 10067 20000 58015
KRCE - Okla City/Page, Oklahoma, USA
Distance from station: SW 78mi, 126km
Updated: Wed, 01-23-2019 5:55pm CST
Clear
Clear
 Wind from SSW
Wind: SSW 5 mph , 7 km/h
Temperature: 41°F , 5°C
Wind Chill: 38°F , 3°C
Dew Point: 23°F , -5°C
Humidity: 49%
Barometer: 1015.9 hPa
Clouds: Clear
Visibility: 10 miles , 16 km
2019/01/23 23:55 KRCE 232355Z AUTO 21004KT 10SM CLR 05/M05 A3000 RMK AO2
KOKM - Okmulgee, Oklahoma, USA
Distance from station: SE 79mi, 127km
Updated: Wed, 01-23-2019 5:55pm CST
Clear
Clear
 Wind from calm
Wind: Calm
Temperature: 36°F , 2°C
Dew Point: 19°F , -7°C
Humidity: 52%
Barometer: 1017.3 hPa
Clouds: Clear
Visibility: 10 miles , 16 km
2019/01/23 23:55 KOKM 232355Z AUTO 00000KT 10SM CLR 02/M07 A3004 RMK AO2 T00221067 10044 20002
 
KPNC - Ponca City, Oklahoma, USA
Distance from station: N 22mi, 36km
Updated: Wed, 01-23-2019 5:53pm CST
Clear
Clear
 Wind from S
Wind: S 3 mph , 6 km/h
Temperature: 36°F , 2°C
Dew Point: 21°F , -6°C
Humidity: 56%
Barometer: 1015.9 hPa
Clouds: Clear
Visibility: 10 miles , 16 km
2019/01/23 23:53 KPNC 232353Z AUTO 19003KT 10SM CLR 02/M06 A3000 RMK AO2 SLP165 T00221061 10039 21017 57014
KSNL - Shawnee, Oklahoma, USA
Distance from station: S 74mi, 119km
Updated: Wed, 01-23-2019 5:55pm CST
Clear
Clear
 Wind from calm
Wind: Calm
Temperature: 36°F , 2°C
Dew Point: 19°F , -7°C
Humidity: 52%
Barometer: 1016.9 hPa
Clouds: Clear
Visibility: 10 miles , 16 km
2019/01/23 23:55 KSNL 232355Z AUTO 00000KT 10SM CLR 02/M07 A3003 RMK AO2 T00231072 10047 20000
KSWO - Stillwater, Oklahoma, USA
Distance from station: S 17mi, 28km
Updated: Wed, 01-23-2019 5:53pm CST
Clear
Clear
 Wind from WSW
Wind: WSW 3 mph , 6 km/h
Temperature: 36°F , 2°C
Dew Point: 19°F , -7°C
Humidity: 52%
Barometer: 1016.3 hPa
Clouds: Clear
Visibility: 10 miles , 16 km
2019/01/23 23:53 KSWO 232353Z 24003KT 10SM CLR 02/M07 A3001 RMK AO2 SLP171 T00221067 10061 20006 56012
 
KTIK - Tinker Afb, Oklahoma, USA
Distance from station: SSW 72mi, 115km
Updated: Wed, 01-23-2019 5:56pm CST
Clear
Clear
 Wind from calm
Wind: Calm
Temperature: 39°F , 4°C
Dew Point: 18°F , -8°C
Humidity: 42%
Barometer: 1016.3 hPa
Clouds: Clear
Visibility: 10 miles , 16 km
2019/01/23 23:56 KTIK 232356Z AUTO 00000KT 10SM CLR 04/M08 A3001 RMK AO2 SLP181 T00411077 10057 21004 57010
KTUL - Tulsa, Oklahoma, USA
Distance from station: ESE 65mi, 105km
Updated: Wed, 01-23-2019 5:53pm CST
Few Clouds
Few Clouds
 Wind from W
Wind: W 3 mph , 6 km/h
Temperature: 36°F , 2°C
Dew Point: 19°F , -7°C
Humidity: 52%
Barometer: 1016.6 hPa
Clouds: Few Clouds
Visibility: 10 miles , 16 km
Cloud details: Few Clouds 25000 ft
2019/01/23 23:53 KTUL 232353Z 26003KT 10SM FEW250 02/M07 A3002 RMK AO2 SLP171 T00221067 10039 21006 58008